Time;durP1;ratioP1;P1;durP2;ratioP2;P2;SDS_P1;SDS_P2;PMS_P1;PMS_P2;Temp;Humidity;BMP_temperature;BMP_pressure;BME280_temperature;BME280_humidity;BME280_pressure;Samples;Min_cycle;Max_cycle;Signal;HPM_P1;HPM_P2
2023/06/29 00:00:21;;;;;;;5.22;2.20;;;15.80;99.90;;;;;;5054828;28;20197;-77
2023/06/29 00:02:48;;;;;;;3.30;2.30;;;15.70;99.90;;;;;;5041577;28;20177;-77
2023/06/29 00:05:14;;;;;;;3.22;2.42;;;15.70;99.90;;;;;;5050934;28;20233;-76
2023/06/29 00:07:39;;;;;;;2.70;1.90;;;15.80;99.90;;;;;;5055246;28;20189;-77
2023/06/29 00:10:07;;;;;;;5.20;2.40;;;15.90;99.90;;;;;;5051913;28;20193;-77
2023/06/29 00:12:33;;;;;;;2.30;2.10;;;15.90;99.90;;;;;;5053118;28;20221;-76
2023/06/29 00:14:58;;;;;;;2.70;2.10;;;16.30;99.90;;;;;;5062380;28;20706;-77
2023/06/29 00:17:24;;;;;;;3.13;2.00;;;16.00;99.90;;;;;;5058005;28;20736;-78
2023/06/29 00:19:50;;;;;;;2.53;2.30;;;16.60;99.90;;;;;;5052589;28;20621;-77
2023/06/29 00:22:16;;;;;;;2.60;1.92;;;16.00;99.90;;;;;;5057278;28;20193;-76
2023/06/29 00:24:42;;;;;;;2.08;1.90;;;16.00;99.90;;;;;;5042251;28;20216;-76
2023/06/29 00:27:17;;;;;;;3.15;2.20;;;16.10;99.90;;;;;;5056342;28;20248;-76
2023/06/29 00:29:43;;;;;;;2.65;1.83;;;16.20;99.90;;;;;;5059922;28;20180;-77
2023/06/29 00:32:12;;;;;;;2.28;2.10;;;16.20;99.90;;;;;;5056757;28;20210;-76
2023/06/29 00:34:38;;;;;;;3.63;2.00;;;16.30;99.90;;;;;;5055029;28;20187;-76
2023/06/29 00:37:05;;;;;;;2.83;2.28;;;16.30;99.90;;;;;;5037788;28;20205;-76
2023/06/29 00:39:32;;;;;;;3.03;2.55;;;16.40;99.90;;;;;;5055200;28;20193;-77
2023/06/29 00:41:57;;;;;;;2.67;2.47;;;16.30;99.90;;;;;;5055149;28;20272;-77
2023/06/29 00:44:23;;;;;;;2.63;2.42;;;16.50;99.90;;;;;;5055251;28;20721;-76
2023/06/29 00:46:51;;;;;;;2.67;2.33;;;16.30;99.90;;;;;;5061080;28;20205;-77
2023/06/29 00:49:18;;;;;;;3.33;2.60;;;16.40;99.90;;;;;;5057008;28;20301;-77
2023/06/29 00:51:49;;;;;;;2.50;2.30;;;16.90;99.90;;;;;;5033824;28;20205;-76
2023/06/29 00:54:18;;;;;;;2.20;2.00;;;16.30;99.90;;;;;;5050085;28;20239;-77
2023/06/29 00:56:46;;;;;;;2.85;2.30;;;16.30;99.90;;;;;;5040713;28;20292;-77
2023/06/29 00:59:12;;;;;;;4.60;2.13;;;16.30;99.90;;;;;;5057623;28;20180;-77
2023/06/29 01:01:39;;;;;;;2.40;2.20;;;16.30;99.90;;;;;;5041442;28;20186;-77
2023/06/29 01:04:05;;;;;;;2.97;2.20;;;16.30;99.90;;;;;;5052415;28;20190;-77
2023/06/29 01:06:34;;;;;;;2.30;2.10;;;16.30;99.90;;;;;;5048092;28;20620;-76
2023/06/29 01:09:04;;;;;;;5.40;2.92;;;16.30;99.90;;;;;;5051417;28;20193;-77
2023/06/29 01:11:34;;;;;;;2.55;2.20;;;16.30;99.90;;;;;;5049421;28;20560;-77
2023/06/29 01:14:03;;;;;;;2.55;2.30;;;16.40;99.90;;;;;;5060752;28;20186;-76
2023/06/29 01:16:32;;;;;;;2.75;2.00;;;16.30;99.90;;;;;;5054182;28;20228;-77
2023/06/29 01:19:01;;;;;;;3.88;2.28;;;16.30;99.90;;;;;;5056004;28;20276;-76
2023/06/29 01:21:29;;;;;;;3.70;2.40;;;16.30;99.90;;;;;;5053154;28;20198;-77
2023/06/29 01:23:58;;;;;;;2.40;2.15;;;16.40;99.90;;;;;;5054437;28;20185;-77
2023/06/29 01:26:23;;;;;;;5.65;2.47;;;16.40;99.90;;;;;;5053678;28;20245;-76
2023/06/29 01:28:50;;;;;;;2.47;2.20;;;16.40;99.90;;;;;;5051864;28;20188;-77
2023/06/29 01:31:16;;;;;;;3.90;2.28;;;16.30;99.90;;;;;;5051903;28;20629;-77
2023/06/29 01:33:42;;;;;;;2.55;2.35;;;16.30;99.90;;;;;;5058394;28;20293;-78
2023/06/29 01:36:20;;;;;;;3.38;2.20;;;16.30;99.90;;;;;;5052412;28;20198;-78
2023/06/29 01:38:58;;;;;;;2.92;2.35;;;16.30;99.90;;;;;;5049397;28;20231;-76
2023/06/29 01:41:24;;;;;;;2.97;2.30;;;16.40;99.90;;;;;;5054888;28;20547;-77
2023/06/29 01:43:51;;;;;;;2.17;2.03;;;16.50;1.00;;;;;;5057119;28;20193;-76
2023/06/29 01:46:19;;;;;;;4.80;2.42;;;16.30;1.00;;;;;;5039241;28;20255;-77
2023/06/29 01:48:45;;;;;;;3.17;2.28;;;16.30;1.00;;;;;;5050792;28;20240;-77
2023/06/29 01:51:11;;;;;;;3.75;2.58;;;16.30;1.00;;;;;;5041473;28;20201;-77
2023/06/29 01:53:37;;;;;;;4.70;2.42;;;16.30;1.00;;;;;;5058655;28;20204;-77
2023/06/29 01:56:03;;;;;;;3.58;2.33;;;16.20;1.00;;;;;;5053031;28;20775;-76
2023/06/29 01:58:29;;;;;;;3.95;2.80;;;16.30;1.00;;;;;;5034425;28;20186;-77
2023/06/29 02:00:54;;;;;;;5.28;2.35;;;16.60;1.00;;;;;;5043953;28;20200;-76
2023/06/29 02:03:20;;;;;;;5.13;2.67;;;16.40;1.00;;;;;;5054321;28;20193;-76
2023/06/29 02:05:46;;;;;;;3.47;2.65;;;16.40;1.00;;;;;;5034784;28;20197;-76
2023/06/29 02:08:11;;;;;;;3.45;2.33;;;16.30;1.00;;;;;;5056033;28;20690;-76
2023/06/29 02:10:37;;;;;;;3.88;2.65;;;16.20;1.00;;;;;;5056186;28;20520;-77
2023/06/29 02:13:03;;;;;;;5.80;2.80;;;16.60;1.00;;;;;;5060275;28;20234;-76
2023/06/29 02:15:28;;;;;;;4.45;2.53;;;16.20;1.00;;;;;;5056330;28;20684;-76
2023/06/29 02:17:54;;;;;;;3.92;2.55;;;16.20;1.00;;;;;;5048447;28;20261;-77
2023/06/29 02:20:19;;;;;;;4.82;2.90;;;16.10;1.00;;;;;;5056142;28;20181;-76
2023/06/29 02:22:45;;;;;;;3.03;2.72;;;16.30;1.00;;;;;;5059067;28;20178;-77
2023/06/29 02:25:13;;;;;;;6.45;2.50;;;16.00;1.00;;;;;;5054271;28;20216;-77
2023/06/29 02:27:38;;;;;;;3.38;2.85;;;16.00;1.00;;;;;;5064203;28;20178;-76
2023/06/29 02:30:05;;;;;;;5.32;2.70;;;16.10;1.00;;;;;;5051761;28;20204;-77
2023/06/29 02:32:30;;;;;;;5.10;2.55;;;16.00;1.00;;;;;;5058326;28;20201;-76
2023/06/29 02:34:56;;;;;;;4.40;3.03;;;16.30;1.00;;;;;;5056381;28;20201;-77
2023/06/29 02:37:22;;;;;;;2.85;2.30;;;16.20;1.00;;;;;;5059779;28;20188;-76
2023/06/29 02:39:47;;;;;;;3.28;2.85;;;16.20;1.00;;;;;;5037309;28;20185;-77
2023/06/29 02:42:13;;;;;;;5.28;2.90;;;16.30;1.00;;;;;;5057445;28;20226;-76
2023/06/29 02:44:38;;;;;;;8.02;3.13;;;16.30;1.00;;;;;;5057205;28;20193;-77
2023/06/29 02:47:05;;;;;;;4.63;2.70;;;16.50;1.00;;;;;;5059004;28;20206;-76
2023/06/29 02:49:30;;;;;;;4.47;3.38;;;16.30;1.00;;;;;;5056244;28;20190;-76
2023/06/29 02:51:56;;;;;;;4.63;3.03;;;16.30;1.00;;;;;;5048720;28;20284;-76
2023/06/29 02:54:21;;;;;;;3.58;3.17;;;16.40;1.00;;;;;;5057200;28;20262;-77
2023/06/29 02:56:47;;;;;;;4.72;2.88;;;16.30;1.00;;;;;;5055760;28;20284;-78
2023/06/29 02:59:12;;;;;;;5.38;3.17;;;16.40;99.90;;;;;;5060298;28;20186;-76
2023/06/29 03:01:38;;;;;;;3.92;2.65;;;16.40;99.90;;;;;;5056072;28;20182;-76
2023/06/29 03:04:04;;;;;;;4.38;2.80;;;16.50;1.00;;;;;;5038561;28;20231;-77
2023/06/29 03:06:29;;;;;;;5.55;2.80;;;16.40;1.00;;;;;;5038877;28;20209;-76
2023/06/29 03:08:55;;;;;;;3.95;2.80;;;16.30;99.90;;;;;;5056316;28;20265;-77
2023/06/29 03:11:20;;;;;;;4.43;2.85;;;16.10;99.90;;;;;;5054585;28;20224;-76
2023/06/29 03:13:46;;;;;;;4.05;2.60;;;16.00;1.00;;;;;;5040083;28;20957;-76
2023/06/29 03:16:12;;;;;;;3.55;2.50;;;16.00;1.00;;;;;;5056441;28;20194;-76
2023/06/29 03:18:38;;;;;;;3.75;2.60;;;15.80;1.00;;;;;;5053097;28;20563;-77
2023/06/29 03:21:04;;;;;;;3.35;2.70;;;15.90;1.00;;;;;;5055599;28;20186;-77
2023/06/29 03:23:29;;;;;;;4.13;2.58;;;16.30;1.00;;;;;;5038730;28;20746;-77
2023/06/29 03:25:55;;;;;;;4.50;2.80;;;16.10;1.00;;;;;;5055470;28;20633;-77
2023/06/29 03:28:21;;;;;;;5.10;2.78;;;16.20;1.00;;;;;;5039184;28;20600;-76
2023/06/29 03:30:46;;;;;;;2.78;2.40;;;16.40;1.00;;;;;;5055250;28;20297;-78
2023/06/29 03:33:12;;;;;;;3.53;2.70;;;16.40;1.00;;;;;;5056141;28;20216;-77
2023/06/29 03:35:37;;;;;;;3.95;2.70;;;16.60;99.90;;;;;;5055223;28;20244;-76
2023/06/29 03:38:07;;;;;;;4.05;2.50;;;16.60;1.00;;;;;;5038167;28;20189;-77
2023/06/29 03:40:32;;;;;;;2.50;2.30;;;16.60;99.90;;;;;;5063186;28;20216;-77
2023/06/29 03:42:58;;;;;;;2.67;2.47;;;17.00;99.90;;;;;;5053764;28;20214;-76
2023/06/29 03:45:24;;;;;;;6.90;3.35;;;16.40;1.00;;;;;;5042306;28;20258;-77
2023/06/29 03:47:49;;;;;;;3.75;2.55;;;16.40;1.00;;;;;;5054964;28;20178;-77
2023/06/29 03:50:15;;;;;;;4.28;2.72;;;16.50;1.00;;;;;;5052429;28;20182;-76
2023/06/29 03:52:41;;;;;;;3.42;2.92;;;16.40;99.90;;;;;;5037254;28;20296;-76
2023/06/29 03:55:07;;;;;;;5.10;2.60;;;16.50;99.90;;;;;;5052987;28;20209;-77
2023/06/29 03:57:33;;;;;;;3.20;2.90;;;16.50;1.00;;;;;;5038192;28;20568;-76
2023/06/29 03:59:58;;;;;;;3.28;2.80;;;16.70;1.00;;;;;;5052546;28;20182;-76
2023/06/29 04:02:24;;;;;;;3.13;2.80;;;16.90;1.00;;;;;;5034019;28;20588;-76
2023/06/29 04:04:49;;;;;;;3.92;3.15;;;17.10;1.00;;;;;;5041849;28;20797;-76
2023/06/29 04:07:15;;;;;;;4.65;3.08;;;17.50;1.00;;;;;;5059391;28;20220;-77
2023/06/29 04:09:41;;;;;;;3.25;2.70;;;16.90;99.90;;;;;;5049073;28;20645;-76
2023/06/29 04:12:07;;;;;;;3.08;2.80;;;17.00;1.00;;;;;;5057454;28;20711;-76
2023/06/29 04:14:32;;;;;;;3.30;3.00;;;17.00;1.00;;;;;;5061791;28;20247;-77
2023/06/29 04:16:58;;;;;;;5.68;2.63;;;17.60;1.00;;;;;;5054381;28;20610;-76
2023/06/29 04:19:23;;;;;;;3.10;2.83;;;17.50;99.90;;;;;;5053506;28;20185;-76
2023/06/29 04:21:49;;;;;;;3.95;3.00;;;17.10;1.00;;;;;;5049335;28;20208;-77
2023/06/29 04:24:15;;;;;;;4.47;3.22;;;17.10;1.00;;;;;;5053533;28;20186;-76
2023/06/29 04:26:41;;;;;;;3.72;2.80;;;17.20;1.00;;;;;;5057526;28;20233;-78
2023/06/29 04:29:06;;;;;;;3.97;3.00;;;17.20;1.00;;;;;;5055603;28;20186;-76
2023/06/29 04:31:33;;;;;;;3.10;2.75;;;17.20;1.00;;;;;;5054716;28;20623;-77
2023/06/29 04:33:59;;;;;;;6.65;3.05;;;17.40;1.00;;;;;;5058928;28;20219;-76
2023/06/29 04:36:27;;;;;;;4.53;3.20;;;17.50;1.00;;;;;;5031875;28;20230;-76
2023/06/29 04:38:53;;;;;;;6.20;3.30;;;17.20;1.00;;;;;;5051465;28;20265;-76
2023/06/29 04:41:19;;;;;;;3.45;3.15;;;17.60;1.00;;;;;;5052897;28;20303;-77
2023/06/29 04:43:49;;;;;;;3.83;3.10;;;17.90;1.00;;;;;;5048954;28;20293;-77
2023/06/29 04:46:17;;;;;;;4.28;3.35;;;17.00;99.90;;;;;;5051527;28;20214;-76
2023/06/29 04:48:46;;;;;;;3.42;2.75;;;17.10;1.00;;;;;;5050584;28;20661;-76
2023/06/29 04:51:13;;;;;;;5.47;3.20;;;17.30;99.90;;;;;;5055273;28;20300;-77
2023/06/29 04:53:38;;;;;;;3.83;2.97;;;17.20;99.90;;;;;;5056894;28;20578;-76
2023/06/29 04:56:04;;;;;;;4.63;2.90;;;17.20;99.90;;;;;;5038024;28;20209;-76
2023/06/29 04:58:30;;;;;;;3.58;3.17;;;17.20;99.90;;;;;;5053614;28;20197;-77
2023/06/29 05:00:56;;;;;;;3.15;2.78;;;17.30;99.90;;;;;;5055715;28;20197;-78
2023/06/29 05:03:24;;;;;;;4.45;2.90;;;17.40;99.90;;;;;;5036120;28;20284;-78
2023/06/29 05:05:49;;;;;;;4.13;2.90;;;17.70;99.90;;;;;;5055307;28;20296;-76
2023/06/29 05:08:15;;;;;;;4.05;3.65;;;17.50;99.90;;;;;;5053998;28;20276;-77
2023/06/29 05:10:41;;;;;;;3.47;2.72;;;17.70;99.90;;;;;;5058118;28;20182;-77
2023/06/29 05:13:06;;;;;;;4.38;2.95;;;17.80;99.90;;;;;;5049443;28;20239;-78
2023/06/29 05:15:32;;;;;;;3.30;2.97;;;18.40;15.50;;;;;;5055826;28;20657;-76
2023/06/29 05:17:58;;;;;;;5.25;3.17;;;18.40;1.00;;;;;;5055716;28;20193;-77
2023/06/29 05:20:23;;;;;;;3.58;2.97;;;18.60;1.00;;;;;;5032866;28;20185;-78
2023/06/29 05:22:49;;;;;;;4.03;3.10;;;18.90;1.00;;;;;;5048920;28;20231;-78
2023/06/29 05:25:15;;;;;;;4.50;3.08;;;18.90;1.00;;;;;;5051016;28;20259;-77
2023/06/29 05:27:41;;;;;;;4.13;2.97;;;19.00;1.00;;;;;;5052996;28;20196;-77
2023/06/29 05:30:08;;;;;;;3.80;3.40;;;19.00;1.00;;;;;;5033066;28;20189;-77
2023/06/29 05:32:35;;;;;;;4.47;3.00;;;19.00;1.00;;;;;;5049621;28;20202;-78
2023/06/29 05:35:00;;;;;;;3.53;2.65;;;19.00;1.00;;;;;;5035621;28;20553;-77
2023/06/29 05:37:27;;;;;;;3.72;2.72;;;18.90;1.00;;;;;;5028957;28;20178;-78
2023/06/29 05:39:54;;;;;;;5.70;3.35;;;19.00;1.00;;;;;;5048531;28;20182;-77
2023/06/29 05:42:20;;;;;;;3.42;3.13;;;18.90;1.00;;;;;;5048244;28;20217;-78
2023/06/29 05:44:45;;;;;;;3.70;3.30;;;19.10;1.00;;;;;;5054788;28;20213;-77
2023/06/29 05:47:11;;;;;;;3.55;2.95;;;19.30;1.00;;;;;;5037495;28;20586;-77
2023/06/29 05:49:37;;;;;;;4.53;3.33;;;19.30;1.00;;;;;;5054024;28;20192;-77
2023/06/29 05:52:02;;;;;;;11.38;4.43;;;19.60;1.00;;;;;;5058356;28;20209;-76
2023/06/29 05:54:28;;;;;;;8.02;3.78;;;19.60;1.00;;;;;;5053463;28;20197;-76
2023/06/29 05:56:54;;;;;;;8.32;3.70;;;19.80;1.00;;;;;;5051784;28;20224;-78
2023/06/29 05:59:19;;;;;;;5.15;3.13;;;19.90;1.00;;;;;;5051038;28;20196;-77
2023/06/29 06:01:45;;;;;;;5.60;3.40;;;19.90;1.00;;;;;;5052387;28;20871;-77
2023/06/29 06:04:10;;;;;;;4.10;3.65;;;19.80;1.00;;;;;;5061742;28;20189;-76
2023/06/29 06:06:36;;;;;;;4.75;3.60;;;19.70;1.00;;;;;;5047778;28;20202;-77
2023/06/29 06:09:02;;;;;;;5.85;3.42;;;19.60;1.00;;;;;;5038993;28;20193;-77
2023/06/29 06:11:28;;;;;;;4.60;3.70;;;19.70;1.00;;;;;;5052267;28;20221;-77
2023/06/29 06:13:53;;;;;;;3.50;3.20;;;19.80;1.00;;;;;;5037218;28;20525;-76
2023/06/29 06:16:20;;;;;;;4.28;3.40;;;19.80;1.00;;;;;;5051507;28;20202;-77
2023/06/29 06:18:46;;;;;;;3.72;3.42;;;20.00;1.00;;;;;;5049553;28;20178;-76
2023/06/29 06:21:11;;;;;;;5.13;3.50;;;20.10;1.00;;;;;;5058609;28;20208;-77
2023/06/29 06:23:37;;;;;;;5.20;3.70;;;20.10;1.00;;;;;;5056133;28;20197;-76
2023/06/29 06:26:02;;;;;;;3.85;3.50;;;20.00;1.00;;;;;;5052086;28;20214;-77
2023/06/29 06:28:28;;;;;;;5.47;3.80;;;20.20;1.00;;;;;;5051278;28;20189;-78
2023/06/29 06:30:54;;;;;;;3.70;3.40;;;20.30;1.00;;;;;;5034277;28;20613;-76
2023/06/29 06:33:20;;;;;;;3.85;3.55;;;20.40;1.00;;;;;;5062009;28;20207;-77
2023/06/29 06:35:45;;;;;;;3.50;3.13;;;20.50;1.00;;;;;;5051655;28;20208;-77
2023/06/29 06:38:11;;;;;;;4.95;3.45;;;20.40;1.00;;;;;;5059257;28;20193;-77
2023/06/29 06:40:36;;;;;;;7.20;4.00;;;20.60;1.00;;;;;;5057505;28;20645;-76
2023/06/29 06:43:02;;;;;;;5.00;4.18;;;20.40;1.00;;;;;;5049300;28;20189;-77
2023/06/29 06:45:28;;;;;;;4.47;4.07;;;20.50;1.00;;;;;;5053459;28;20205;-76
2023/06/29 06:47:53;;;;;;;4.45;3.53;;;20.50;1.00;;;;;;5049288;28;20327;-76
2023/06/29 06:50:20;;;;;;;4.88;4.25;;;20.60;1.00;;;;;;5041634;28;20193;-78
2023/06/29 06:52:46;;;;;;;5.95;3.95;;;20.60;1.00;;;;;;5055216;28;20704;-76
2023/06/29 06:55:12;;;;;;;4.07;3.55;;;20.80;1.00;;;;;;5036988;28;20688;-76
2023/06/29 06:57:38;;;;;;;4.43;3.42;;;20.80;1.00;;;;;;5051465;28;20201;-77
2023/06/29 07:00:05;;;;;;;3.83;3.28;;;20.90;1.00;;;;;;5050592;28;20193;-77
2023/06/29 07:02:31;;;;;;;4.60;3.80;;;20.90;1.00;;;;;;5053747;28;20181;-78
2023/06/29 07:04:56;;;;;;;4.75;3.40;;;21.00;1.00;;;;;;5048246;28;20663;-78
2023/06/29 07:07:22;;;;;;;4.15;3.42;;;21.10;1.00;;;;;;5055760;28;20232;-78
2023/06/29 07:09:47;;;;;;;8.68;4.10;;;21.40;1.00;;;;;;5039911;28;20608;-78
2023/06/29 07:12:13;;;;;;;8.07;3.60;;;21.60;1.00;;;;;;5057056;28;20331;-78
2023/06/29 07:14:39;;;;;;;9.18;4.10;;;21.80;1.00;;;;;;5056645;28;20181;-78
2023/06/29 07:17:05;;;;;;;7.72;4.53;;;21.80;1.00;;;;;;5039062;28;20543;-79
2023/06/29 07:19:31;;;;;;;5.22;4.10;;;22.10;1.00;;;;;;5057296;28;20180;-79
2023/06/29 07:21:57;;;;;;;5.20;3.80;;;22.10;99.90;;;;;;5040748;28;20174;-79
2023/06/29 07:24:22;;;;;;;5.22;3.80;;;22.10;99.90;;;;;;5037026;28;20198;-78
2023/06/29 07:26:48;;;;;;;4.53;4.13;;;22.60;99.90;;;;;;5055441;28;20271;-78
2023/06/29 07:29:13;;;;;;;3.78;3.47;;;22.90;99.90;;;;;;5055592;28;20259;-78
2023/06/29 07:31:39;;;;;;;5.45;4.00;;;22.70;99.90;;;;;;5056026;28;20224;-78
2023/06/29 07:34:05;;;;;;;3.90;3.50;;;22.90;99.90;;;;;;5037783;28;20665;-79
2023/06/29 07:36:30;;;;;;;5.88;4.00;;;23.30;99.90;;;;;;5057005;28;20675;-78
2023/06/29 07:38:56;;;;;;;3.85;3.55;;;23.50;99.90;;;;;;5054110;28;20292;-79
2023/06/29 07:41:22;;;;;;;5.55;4.00;;;23.90;99.90;;;;;;5055813;28;20189;-77
2023/06/29 07:43:53;;;;;;;5.40;3.65;;;24.20;99.90;;;;;;5054340;28;20228;-76
2023/06/29 07:46:19;;;;;;;4.63;3.88;;;24.10;99.90;;;;;;5057070;28;20665;-77
2023/06/29 07:48:46;;;;;;;3.70;3.35;;;24.10;99.90;;;;;;5057725;28;20189;-77
2023/06/29 07:51:12;;;;;;;4.35;3.95;;;24.30;99.90;;;;;;5056721;28;20206;-76
2023/06/29 07:53:37;;;;;;;4.50;3.38;;;24.40;99.90;;;;;;5055743;28;21394;-79
2023/06/29 07:56:03;;;;;;;3.97;3.42;;;24.70;99.90;;;;;;5057409;28;20213;-80
2023/06/29 07:58:29;;;;;;;3.92;3.58;;;24.80;99.90;;;;;;5057745;28;20197;-79
2023/06/29 08:00:55;;;;;;;5.32;4.03;;;25.00;99.90;;;;;;5057193;28;20216;-80
2023/06/29 08:03:21;;;;;;;3.67;3.25;;;25.10;99.90;;;;;;5058110;28;20264;-80
2023/06/29 08:05:47;;;;;;;4.40;3.50;;;24.90;99.90;;;;;;5056633;28;20205;-80
2023/06/29 08:08:12;;;;;;;3.67;3.22;;;25.40;99.90;;;;;;5055113;28;20197;-80
2023/06/29 08:10:38;;;;;;;3.88;3.47;;;26.20;99.90;;;;;;5055505;28;20603;-80
2023/06/29 08:13:04;;;;;;;5.20;4.07;;;26.30;99.90;;;;;;5055501;28;20180;-79
2023/06/29 08:15:29;;;;;;;3.38;3.03;;;26.90;99.90;;;;;;5055875;28;20198;-79
2023/06/29 08:17:55;;;;;;;5.88;4.30;;;27.10;99.90;;;;;;5052297;28;20546;-81
2023/06/29 08:20:22;;;;;;;5.13;3.72;;;27.50;99.90;;;;;;5055554;28;20273;-78
2023/06/29 08:22:48;;;;;;;4.97;4.05;;;27.50;99.90;;;;;;5040332;28;20584;-78
2023/06/29 08:25:15;;;;;;;4.60;4.20;;;27.70;99.90;;;;;;5054774;28;20263;-79
2023/06/29 08:27:41;;;;;;;4.65;4.25;;;27.90;99.90;;;;;;5050708;28;20217;-80
2023/06/29 08:30:08;;;;;;;5.90;4.88;;;27.00;99.90;;;;;;5055878;28;20186;-81
2023/06/29 08:32:34;;;;;;;5.18;4.40;;;27.60;99.90;;;;;;5056577;28;20284;-78
2023/06/29 08:34:59;;;;;;;6.45;4.75;;;27.80;99.90;;;;;;5056501;28;20181;-79
2023/06/29 08:37:26;;;;;;;5.35;4.82;;;27.80;99.90;;;;;;5056560;28;20182;-79
2023/06/29 08:39:52;;;;;;;5.97;5.00;;;27.50;99.90;;;;;;5038200;28;20175;-81
2023/06/29 08:42:18;;;;;;;5.35;4.80;;;27.20;99.90;;;;;;5055264;28;20662;-79
2023/06/29 08:44:43;;;;;;;5.47;4.97;;;27.10;99.90;;;;;;5054974;28;20216;-80
2023/06/29 08:47:11;;;;;;;5.47;4.97;;;26.90;99.90;;;;;;5055679;28;20727;-82
2023/06/29 08:49:39;;;;;;;5.75;5.07;;;26.80;99.90;;;;;;5054878;28;20185;-79
2023/06/29 08:52:08;;;;;;;4.45;4.15;;;26.30;99.90;;;;;;5056246;28;20205;-80
2023/06/29 08:54:35;;;;;;;6.53;5.40;;;26.00;99.90;;;;;;5055956;28;20208;-79
2023/06/29 08:57:02;;;;;;;5.32;4.65;;;26.10;99.90;;;;;;5056561;28;20205;-81
2023/06/29 08:59:28;;;;;;;5.30;4.68;;;26.00;99.90;;;;;;5057269;28;20197;-79
2023/06/29 09:02:00;;;;;;;5.07;4.57;;;26.20;99.90;;;;;;5035892;28;20194;-79
2023/06/29 09:04:26;;;;;;;6.80;5.25;;;26.40;99.90;;;;;;5053814;28;20189;-78
2023/06/29 09:06:55;;;;;;;5.60;5.00;;;26.30;99.90;;;;;;5056147;28;20255;-80
2023/06/29 09:09:22;;;;;;;6.30;5.70;;;26.40;99.90;;;;;;5052580;28;20183;-78
2023/06/29 09:11:48;;;;;;;8.20;5.60;;;26.60;99.90;;;;;;5053159;28;20193;-81
2023/06/29 09:14:13;;;;;;;6.68;5.85;;;26.90;99.90;;;;;;5055152;28;20662;-78
2023/06/29 09:16:58;;;;;;;6.40;5.80;;;26.80;99.90;;;;;;5053948;28;20209;-79
2023/06/29 09:19:25;;;;;;;6.38;5.78;;;26.90;99.90;;;;;;5038175;28;20550;-79
2023/06/29 09:21:51;;;;;;;6.00;5.40;;;26.90;99.90;;;;;;5053622;28;20197;-79
2023/06/29 09:24:18;;;;;;;7.03;5.97;;;26.90;99.90;;;;;;5053056;28;20190;-80
2023/06/29 09:26:47;;;;;;;8.68;7.82;;;26.40;99.90;;;;;;5045680;28;20201;-79
2023/06/29 09:29:13;;;;;;;8.55;6.82;;;26.30;99.90;;;;;;5049506;28;20195;-79
2023/06/29 09:31:39;;;;;;;7.68;6.40;;;26.00;99.90;;;;;;5054457;28;20214;-79
2023/06/29 09:34:19;;;;;;;7.00;6.22;;;26.00;99.90;;;;;;5052846;28;20665;-78
2023/06/29 09:36:45;;;;;;;7.43;6.07;;;26.00;99.90;;;;;;5053899;28;20196;-82
2023/06/29 09:39:14;;;;;;;10.00;7.20;;;25.80;99.90;;;;;;5053508;28;20281;-80
2023/06/29 09:41:50;;;;;;;9.48;8.48;;;25.50;99.90;;;;;;5036112;28;20635;-79
2023/06/29 09:44:19;;;;;;;13.90;11.27;;;25.70;99.90;;;;;;5045531;28;20190;-79
2023/06/29 09:47:04;;;;;;;10.40;9.30;;;25.80;99.90;;;;;;5050432;28;22064;-81
2023/06/29 09:49:31;;;;;;;9.82;8.82;;;26.20;99.90;;;;;;5054582;28;20316;-80
2023/06/29 09:52:03;;;;;;;9.32;8.43;;;26.40;99.90;;;;;;5054122;28;20690;-79
2023/06/29 09:54:38;;;;;;;12.43;11.05;;;26.70;99.90;;;;;;5037441;28;20575;-81
2023/06/29 09:57:04;;;;;;;12.40;10.43;;;27.20;99.90;;;;;;5038024;28;20205;-80
2023/06/29 09:59:40;;;;;;;11.15;9.88;;;27.40;99.90;;;;;;5054570;28;20186;-80
2023/06/29 10:02:12;;;;;;;13.15;10.27;;;27.70;99.90;;;;;;5048310;28;20534;-81
2023/06/29 10:04:41;;;;;;;12.10;10.82;;;27.60;99.90;;;;;;5051013;28;20189;-80
2023/06/29 10:07:14;;;;;;;12.60;11.27;;;27.70;99.90;;;;;;5053221;28;20260;-80
2023/06/29 10:09:45;;;;;;;11.68;10.48;;;27.70;99.90;;;;;;5057137;28;20296;-80
2023/06/29 10:12:12;;;;;;;10.98;9.82;;;28.00;99.90;;;;;;5052228;28;20202;-80
2023/06/29 10:14:45;;;;;;;11.55;9.98;;;28.40;99.90;;;;;;5053574;28;20178;-80
2023/06/29 10:17:25;;;;;;;11.10;9.77;;;28.40;99.90;;;;;;5054377;28;20639;-80
2023/06/29 10:19:53;;;;;;;12.52;11.30;;;28.50;99.90;;;;;;5036166;28;20184;-80
2023/06/29 10:22:21;;;;;;;13.80;12.25;;;28.50;99.90;;;;;;5055211;28;20194;-79
2023/06/29 10:24:53;;;;;;;15.20;13.05;;;28.50;99.90;;;;;;5053452;28;20184;-80
2023/06/29 10:27:24;;;;;;;13.60;12.20;;;28.60;99.90;;;;;;5054946;28;20185;-81
2023/06/29 10:29:50;;;;;;;14.02;12.60;;;28.90;99.90;;;;;;5051406;28;20704;-80
2023/06/29 10:32:37;;;;;;;12.77;11.48;;;28.50;99.90;;;;;;5049875;28;20348;-76
2023/06/29 10:35:10;;;;;;;13.82;12.35;;;28.70;99.90;;;;;;5057523;28;20208;-80
2023/06/29 10:37:57;;;;;;;13.93;12.35;;;28.90;99.90;;;;;;5055973;28;20182;-79
2023/06/29 10:40:26;;;;;;;13.68;12.32;;;28.90;99.90;;;;;;5056834;28;20208;-79
2023/06/29 10:42:54;;;;;;;14.77;13.32;;;29.00;99.90;;;;;;5059474;28;20522;-79
2023/06/29 10:45:20;;;;;;;14.63;13.13;;;28.80;99.90;;;;;;5058642;28;20305;-78
2023/06/29 10:48:02;;;;;;;14.13;12.63;;;28.50;99.90;;;;;;5060043;28;20663;-79
2023/06/29 10:50:51;;;;;;;13.48;12.13;;;28.00;99.90;;;;;;5060961;28;20272;-81
2023/06/29 10:53:20;;;;;;;15.57;12.52;;;28.10;99.90;;;;;;5057431;28;20228;-80
2023/06/29 10:55:59;;;;;;;12.82;11.50;;;28.30;99.90;;;;;;5058174;28;20256;-76
2023/06/29 10:58:30;;;;;;;15.38;12.38;;;28.60;99.90;;;;;;5059084;28;20174;-78
2023/06/29 11:00:56;;;;;;;12.63;11.32;;;28.70;99.90;;;;;;5059785;28;20165;-79
2023/06/29 11:03:23;;;;;;;12.70;11.48;;;28.50;99.90;;;;;;5053303;28;20182;-80
2023/06/29 11:05:53;;;;;;;14.38;12.95;;;28.20;99.90;;;;;;5059173;28;20194;-79
2023/06/29 11:08:23;;;;;;;14.50;13.00;;;28.30;99.90;;;;;;5060176;28;20224;-78
2023/06/29 11:10:50;;;;;;;12.65;11.35;;;28.40;99.90;;;;;;5059324;28;20264;-81
2023/06/29 11:13:18;;;;;;;13.95;12.55;;;28.60;99.90;;;;;;5057826;28;20173;-78
2023/06/29 11:15:50;;;;;;;13.77;12.38;;;28.80;99.90;;;;;;5058213;28;20652;-78
2023/06/29 11:18:16;;;;;;;14.60;13.10;;;29.00;99.90;;;;;;5055712;28;20185;-77
2023/06/29 11:20:41;;;;;;;14.20;12.77;;;28.80;99.90;;;;;;5039326;28;20204;-80
2023/06/29 11:23:07;;;;;;;12.65;11.45;;;28.70;99.90;;;;;;5056639;28;20186;-81
2023/06/29 11:25:35;;;;;;;14.85;13.45;;;28.50;99.90;;;;;;5048916;28;20418;-80
2023/06/29 11:28:01;;;;;;;14.55;13.05;;;28.60;99.90;;;;;;5057500;28;20236;-79
2023/06/29 11:30:26;;;;;;;15.05;13.55;;;28.80;99.90;;;;;;5038244;28;20674;-79
2023/06/29 11:32:53;;;;;;;15.70;14.15;;;28.50;99.90;;;;;;5037372;28;20202;-80
2023/06/29 11:35:21;;;;;;;15.68;14.00;;;28.40;99.90;;;;;;5058133;28;20201;-77
2023/06/29 11:37:56;;;;;;;16.58;13.75;;;28.40;99.90;;;;;;5058527;28;20184;-79
2023/06/29 11:40:23;;;;;;;16.27;13.15;;;28.60;99.90;;;;;;5041099;28;20783;-79
2023/06/29 11:42:50;;;;;;;15.75;13.35;;;28.80;99.90;;;;;;5038388;28;20202;-79
2023/06/29 11:45:17;;;;;;;14.55;13.05;;;28.80;99.90;;;;;;5038913;28;20209;-80
2023/06/29 11:47:44;;;;;;;13.90;12.45;;;28.40;99.90;;;;;;5055586;28;20968;-79
2023/06/29 11:50:10;;;;;;;13.95;12.55;;;28.60;99.90;;;;;;5054424;28;20192;-78
2023/06/29 11:52:38;;;;;;;14.23;12.73;;;28.60;99.90;;;;;;5038826;28;20221;-78
2023/06/29 11:55:09;;;;;;;14.95;13.30;;;28.30;99.90;;;;;;5039747;28;20193;-79
2023/06/29 11:57:40;;;;;;;13.82;11.40;;;27.60;99.90;;;;;;5039441;28;20264;-79
2023/06/29 12:00:16;;;;;;;13.70;12.40;;;27.50;99.90;;;;;;5040617;28;20182;-79
2023/06/29 12:02:43;;;;;;;14.18;12.55;;;27.40;99.90;;;;;;5039957;28;20657;-80
2023/06/29 12:05:10;;;;;;;14.27;12.88;;;27.30;99.90;;;;;;5037532;28;20216;-78
2023/06/29 12:07:40;;;;;;;16.92;13.57;;;27.40;99.90;;;;;;5059635;28;20185;-78
2023/06/29 12:10:08;;;;;;;14.45;13.00;;;27.60;99.90;;;;;;5058634;28;20186;-80
2023/06/29 12:12:41;;;;;;;14.93;13.40;;;27.30;99.90;;;;;;5039556;28;20600;-82
2023/06/29 12:15:15;;;;;;;15.05;13.13;;;27.50;99.90;;;;;;5040502;28;20209;-78
2023/06/29 12:17:41;;;;;;;14.32;12.93;;;27.50;99.90;;;;;;5056938;28;20283;-78
2023/06/29 12:20:15;;;;;;;14.77;13.27;;;27.20;99.90;;;;;;5040600;28;20183;-79
2023/06/29 12:22:42;;;;;;;13.50;12.10;;;27.10;99.90;;;;;;5056762;28;20181;-78
2023/06/29 12:25:13;;;;;;;12.82;11.50;;;27.30;99.90;;;;;;5054305;28;20216;-79
2023/06/29 12:27:47;;;;;;;13.00;11.65;;;27.60;99.90;;;;;;5038023;28;20175;-79
2023/06/29 12:30:20;;;;;;;12.75;11.35;;;27.80;99.90;;;;;;5039974;28;20190;-81
2023/06/29 12:32:46;;;;;;;13.82;12.25;;;27.90;99.90;;;;;;5057815;28;20208;-82
2023/06/29 12:35:13;;;;;;;12.75;11.52;;;28.00;99.90;;;;;;5039673;28;20560;-82
2023/06/29 12:37:38;;;;;;;12.50;11.15;;;27.90;99.90;;;;;;5057140;28;20174;-83
2023/06/29 12:40:05;;;;;;;15.38;14.00;;;27.70;99.90;;;;;;5038486;28;20174;-81
2023/06/29 12:42:32;;;;;;;16.10;14.50;;;27.70;99.90;;;;;;5055943;28;20679;-79
2023/06/29 12:44:58;;;;;;;22.05;19.98;;;27.30;99.90;;;;;;5053231;28;20246;-80